createdAt,value
2023-03-11T00:00:02.353Z,1.25
2023-03-11T00:02:34.058Z,1.42
2023-03-11T00:05:04.219Z,1.85
2023-03-11T00:07:34.446Z,1.88
2023-03-11T00:10:05.405Z,1.85
2023-03-11T00:12:35.656Z,1.73
2023-03-11T00:15:05.882Z,1.40
2023-03-11T00:17:36.072Z,2.00
2023-03-11T00:20:08.188Z,1.90
2023-03-11T00:22:38.389Z,1.80
2023-03-11T00:25:08.514Z,2.05
2023-03-11T00:27:38.709Z,1.98
2023-03-11T00:30:09.526Z,1.75
2023-03-11T00:32:39.860Z,1.83
2023-03-11T00:35:15.365Z,2.35
2023-03-11T00:37:47.064Z,1.55
2023-03-11T00:40:20.395Z,1.83
2023-03-11T00:42:50.618Z,1.85
2023-03-11T00:45:21.070Z,2.50
2023-03-11T00:47:52.590Z,1.83
2023-03-11T00:50:31.417Z,2.15
2023-03-11T00:53:02.435Z,1.75
2023-03-11T00:55:34.857Z,2.10
2023-03-11T00:58:09.684Z,1.50
2023-03-11T01:01:18.380Z,2.13
2023-03-11T01:03:48.835Z,2.00
2023-03-11T01:06:19.516Z,1.83
2023-03-11T01:11:19.398Z,1.80
2023-03-11T01:13:49.770Z,1.65
2023-03-11T01:16:20.146Z,2.20
2023-03-11T01:18:51.927Z,1.60
2023-03-11T01:21:22.040Z,1.70
2023-03-11T01:26:21.606Z,1.75
2023-03-11T01:28:51.711Z,1.75
2023-03-11T01:31:21.682Z,1.58
2023-03-11T01:33:53.316Z,1.80
2023-03-11T01:36:23.586Z,1.75
2023-03-11T01:38:54.081Z,1.90
2023-03-11T01:41:25.436Z,1.83
2023-03-11T01:43:56.612Z,2.00
2023-03-11T01:47:01.105Z,1.77
2023-03-11T01:49:34.555Z,1.92
2023-03-11T01:52:10.851Z,1.88
2023-03-11T01:54:51.814Z,2.20
2023-03-11T01:57:23.867Z,2.20
2023-03-11T01:59:59.030Z,1.98
2023-03-11T02:02:47.161Z,2.25
2023-03-11T02:05:18.522Z,2.08
2023-03-11T02:07:49.424Z,2.08
2023-03-11T02:10:21.485Z,2.20
2023-03-11T02:12:53.316Z,2.05
2023-03-11T02:15:27.377Z,2.03
2023-03-11T02:18:03.446Z,2.30
2023-03-11T02:21:04.493Z,2.53
2023-03-11T02:23:57.379Z,1.88
2023-03-11T02:26:42.263Z,2.08
2023-03-11T02:29:13.709Z,2.80
2023-03-11T02:31:45.783Z,2.00
2023-03-11T02:34:27.748Z,1.73
2023-03-11T02:36:58.288Z,2.58
2023-03-11T02:39:56.270Z,2.20
2023-03-11T02:42:33.360Z,2.40
2023-03-11T02:45:15.792Z,2.40
2023-03-11T02:47:47.904Z,1.55
2023-03-11T02:50:20.778Z,2.40
2023-03-11T02:52:51.605Z,2.33
2023-03-11T02:55:22.851Z,2.75
2023-03-11T02:57:53.471Z,2.60
2023-03-11T03:00:23.961Z,2.47
2023-03-11T03:03:00.331Z,2.35
2023-03-11T03:05:31.469Z,2.42
2023-03-11T03:08:03.984Z,2.40
2023-03-11T03:10:34.172Z,2.85
2023-03-11T03:13:05.684Z,2.92
2023-03-11T03:15:35.929Z,2.83
2023-03-11T03:18:06.325Z,2.42
2023-03-11T03:20:36.663Z,3.15
2023-03-11T03:23:07.333Z,2.63
2023-03-11T03:28:10.244Z,3.25
2023-03-11T03:30:42.400Z,3.00
2023-03-11T03:33:13.736Z,2.90
2023-03-11T03:35:46.441Z,2.30
2023-03-11T03:38:29.141Z,2.42
2023-03-11T03:40:59.306Z,2.33
2023-03-11T03:46:04.394Z,2.88
2023-03-11T03:48:41.146Z,2.33
2023-03-11T03:51:14.759Z,2.45
2023-03-11T03:54:04.954Z,2.53
2023-03-11T03:59:04.956Z,3.55
2023-03-11T04:01:41.330Z,3.00
2023-03-11T04:04:11.671Z,2.80
2023-03-11T04:06:41.993Z,2.85
2023-03-11T04:09:13.959Z,2.95
2023-03-11T04:11:44.470Z,2.67
2023-03-11T04:14:17.019Z,3.63
2023-03-11T04:16:54.535Z,3.13
2023-03-11T04:19:24.936Z,3.03
2023-03-11T04:21:55.140Z,3.50
2023-03-11T04:24:27.609Z,3.63
2023-03-11T04:26:58.002Z,3.63
2023-03-11T04:29:28.389Z,3.67
2023-03-11T04:34:28.380Z,3.53
2023-03-11T04:36:58.792Z,2.95
2023-03-11T04:39:34.113Z,3.50
2023-03-11T04:42:04.589Z,3.13
2023-03-11T04:44:38.188Z,3.13
2023-03-11T04:47:08.947Z,2.85
2023-03-11T04:49:39.900Z,4.13
2023-03-11T04:52:10.229Z,4.55
2023-03-11T04:54:41.031Z,4.40
2023-03-11T04:57:11.205Z,3.85
2023-03-11T04:59:44.974Z,3.95
2023-03-11T05:02:17.153Z,3.50
2023-03-11T05:04:55.336Z,4.35
2023-03-11T05:07:25.633Z,4.07
2023-03-11T05:09:56.354Z,4.88
2023-03-11T05:12:26.686Z,4.82
2023-03-11T05:14:57.530Z,4.35
2023-03-11T05:17:27.964Z,4.07
2023-03-11T05:19:58.760Z,4.00
2023-03-11T05:22:34.181Z,4.15
2023-03-11T05:25:04.565Z,3.78
2023-03-11T05:27:35.031Z,3.78
2023-03-11T05:30:05.776Z,3.50
2023-03-11T05:32:38.462Z,4.28
2023-03-11T05:35:10.139Z,3.38
2023-03-11T05:37:40.555Z,3.90
2023-03-11T05:40:13.514Z,3.92
2023-03-11T05:42:43.633Z,4.03
2023-03-11T05:45:16.622Z,3.17
2023-03-11T05:47:49.585Z,3.20
2023-03-11T05:50:20.503Z,3.00
2023-03-11T05:52:52.375Z,3.03
2023-03-11T05:55:24.247Z,2.90
2023-03-11T05:57:54.561Z,3.05
2023-03-11T06:00:25.114Z,4.00
2023-03-11T06:02:56.497Z,2.88
2023-03-11T06:05:26.907Z,2.85
2023-03-11T06:07:58.867Z,2.70
2023-03-11T06:12:58.362Z,2.25
2023-03-11T06:15:31.997Z,2.58
2023-03-11T06:20:32.103Z,2.70
2023-03-11T06:23:02.360Z,3.00
2023-03-11T06:28:02.817Z,2.35
2023-03-11T06:30:33.319Z,2.78
2023-03-11T06:35:39.342Z,2.33
2023-03-11T06:40:40.327Z,2.70
2023-03-11T06:43:30.000Z,2.88
2023-03-11T06:46:01.950Z,2.63
2023-03-11T06:48:32.331Z,2.00
2023-03-11T06:53:33.115Z,2.83
2023-03-11T06:56:12.901Z,3.28
2023-03-11T06:58:53.385Z,2.90
2023-03-11T07:01:26.467Z,2.53
2023-03-11T07:03:58.745Z,2.92
2023-03-11T07:06:30.781Z,2.70
2023-03-11T07:09:06.751Z,3.30
2023-03-11T07:11:40.462Z,2.95
2023-03-11T07:14:14.920Z,3.45
2023-03-11T07:16:50.697Z,3.97
2023-03-11T07:19:29.102Z,5.10
2023-03-11T07:24:28.626Z,4.88
2023-03-11T07:29:28.127Z,3.90
2023-03-11T07:34:27.965Z,3.28
2023-03-11T07:39:27.389Z,2.85
2023-03-11T07:44:36.196Z,3.13
2023-03-11T07:49:40.074Z,2.67
2023-03-11T07:52:10.315Z,2.60
2023-03-11T07:57:14.213Z,2.50
2023-03-11T07:59:44.622Z,2.67
2023-03-11T08:04:44.005Z,1.98
2023-03-11T08:09:44.191Z,2.63
2023-03-11T08:12:14.442Z,2.42
2023-03-11T08:17:15.005Z,2.90
2023-03-11T08:19:45.159Z,2.08
2023-03-11T08:22:15.339Z,2.72
2023-03-11T08:27:14.945Z,2.38
2023-03-11T08:29:45.331Z,2.45
2023-03-11T08:32:15.602Z,2.50
2023-03-11T08:34:45.836Z,2.47
2023-03-11T08:37:16.180Z,2.25
2023-03-11T08:39:46.320Z,2.50
2023-03-11T08:42:17.826Z,2.75
2023-03-11T08:44:48.088Z,3.53
2023-03-11T08:47:18.176Z,3.13
2023-03-11T08:49:48.380Z,2.97
2023-03-11T08:54:48.100Z,3.30
2023-03-11T08:59:47.606Z,3.08
2023-03-11T09:02:17.919Z,3.75
2023-03-11T09:04:48.151Z,4.40
2023-03-11T09:07:39.186Z,4.28
2023-03-11T09:10:10.066Z,3.90
2023-03-11T09:12:40.174Z,4.43
2023-03-11T09:15:11.754Z,4.28
2023-03-11T09:17:41.952Z,3.97
2023-03-11T09:22:43.959Z,5.47
2023-03-11T09:27:44.474Z,5.18
2023-03-11T09:32:44.421Z,5.10
2023-03-11T09:35:14.708Z,5.63
2023-03-11T09:40:25.400Z,5.10
2023-03-11T09:43:25.724Z,5.47
2023-03-11T09:46:24.047Z,5.72
2023-03-11T09:49:09.220Z,4.80
2023-03-11T09:51:46.658Z,5.53
2023-03-11T09:54:16.923Z,4.78
2023-03-11T09:56:47.303Z,4.82
2023-03-11T09:59:25.189Z,5.20
2023-03-11T10:01:55.588Z,5.15
2023-03-11T10:07:24.102Z,4.20
2023-03-11T10:12:39.978Z,4.15
2023-03-11T10:15:24.772Z,3.33
2023-03-11T10:18:36.328Z,2.75
2023-03-11T10:21:24.506Z,3.00
2023-03-11T10:24:15.518Z,2.75
2023-03-11T10:27:00.531Z,3.25
2023-03-11T10:29:46.926Z,2.83
2023-03-11T10:32:37.800Z,3.15
2023-03-11T10:35:23.705Z,3.03
2023-03-11T10:38:04.583Z,3.38
2023-03-11T10:40:37.682Z,3.00
2023-03-11T10:43:18.966Z,3.17
2023-03-11T10:45:52.325Z,3.30
2023-03-11T10:48:23.918Z,2.45
2023-03-11T10:51:16.272Z,2.47
2023-03-11T10:53:52.658Z,3.03
2023-03-11T10:59:27.740Z,3.47
2023-03-11T11:01:59.135Z,3.20
2023-03-11T11:04:37.777Z,3.47
2023-03-11T11:07:42.213Z,3.00
2023-03-11T11:10:17.947Z,3.30
2023-03-11T11:13:15.430Z,3.42
2023-03-11T11:16:07.579Z,2.97
2023-03-11T11:18:49.454Z,2.78
2023-03-11T11:21:34.551Z,2.45
2023-03-11T11:24:27.135Z,2.40
2023-03-11T11:27:24.537Z,2.45
2023-03-11T11:30:12.421Z,2.88
2023-03-11T11:32:43.525Z,2.42
2023-03-11T11:35:24.618Z,2.58
2023-03-11T11:38:01.570Z,2.28
2023-03-11T11:40:34.305Z,2.33
2023-03-11T11:43:48.012Z,2.40
2023-03-11T11:46:22.039Z,2.35
2023-03-11T11:48:57.985Z,2.22
2023-03-11T11:51:34.119Z,2.42
2023-03-11T11:54:36.897Z,2.33
2023-03-11T11:57:15.836Z,2.53
2023-03-11T11:59:46.861Z,2.83
2023-03-11T12:02:36.917Z,2.42
2023-03-11T12:05:23.521Z,2.33
2023-03-11T12:08:02.680Z,2.00
2023-03-11T12:10:56.428Z,2.20
2023-03-11T12:13:52.163Z,2.58
2023-03-11T12:16:31.492Z,2.13
2023-03-11T12:19:11.850Z,2.08
2023-03-11T12:21:57.175Z,2.00
2023-03-11T12:24:35.656Z,2.25
2023-03-11T12:27:31.386Z,2.45
2023-03-11T12:30:12.308Z,1.95
2023-03-11T12:32:51.280Z,2.40
2023-03-11T12:35:31.415Z,1.85
2023-03-11T12:38:34.277Z,2.22
2023-03-11T12:41:08.591Z,1.67
2023-03-11T12:43:38.719Z,2.08
2023-03-11T12:46:14.561Z,2.00
2023-03-11T12:51:42.100Z,2.40
2023-03-11T12:54:35.398Z,2.55
2023-03-11T12:57:33.734Z,2.08
2023-03-11T13:00:24.170Z,2.55
2023-03-11T13:03:15.800Z,2.35
2023-03-11T13:06:13.053Z,2.17
2023-03-11T13:08:56.436Z,2.17
2023-03-11T13:11:35.456Z,2.00
2023-03-11T13:14:17.360Z,2.00
2023-03-11T13:16:48.686Z,2.28
2023-03-11T13:19:36.150Z,2.28
2023-03-11T13:22:27.792Z,2.70
2023-03-11T13:24:57.987Z,3.67
2023-03-11T13:27:39.569Z,3.25
2023-03-11T13:30:35.338Z,3.10
2023-03-11T13:33:41.363Z,3.17
2023-03-11T13:36:21.026Z,3.05
2023-03-11T13:39:11.864Z,3.13
2023-03-11T13:41:48.780Z,3.80
2023-03-11T13:44:40.251Z,3.38
2023-03-11T13:47:17.306Z,3.40
2023-03-11T13:50:05.660Z,2.92
2023-03-11T13:52:41.179Z,2.80
2023-03-11T13:55:37.483Z,2.83
2023-03-11T13:58:24.573Z,2.78
2023-03-11T14:01:04.095Z,3.00
2023-03-11T14:03:45.240Z,2.97
2023-03-11T14:06:20.909Z,2.67
2023-03-11T14:08:59.286Z,2.75
2023-03-11T14:11:31.137Z,2.72
2023-03-11T14:14:03.019Z,2.85
2023-03-11T14:16:37.720Z,3.10
2023-03-11T14:19:19.116Z,2.60
2023-03-11T14:21:53.411Z,2.67
2023-03-11T14:24:31.753Z,2.83
2023-03-11T14:27:05.347Z,2.47
2023-03-11T14:29:45.063Z,2.90
2023-03-11T14:32:36.244Z,2.55
2023-03-11T14:35:26.628Z,2.50
2023-03-11T14:37:57.508Z,2.70
2023-03-11T14:40:43.241Z,2.35
2023-03-11T14:43:13.949Z,2.30
2023-03-11T14:45:45.506Z,2.70
2023-03-11T14:48:48.844Z,2.72
2023-03-11T14:51:23.925Z,1.92
2023-03-11T14:54:19.364Z,2.40
2023-03-11T14:57:01.826Z,2.30
2023-03-11T14:59:34.567Z,2.60
2023-03-11T15:02:39.839Z,2.83
2023-03-11T15:05:28.262Z,2.70
2023-03-11T15:08:04.156Z,2.80
2023-03-11T15:10:35.332Z,2.80
2023-03-11T15:13:12.441Z,3.47
2023-03-11T15:15:42.991Z,2.83
2023-03-11T15:18:30.179Z,2.58
2023-03-11T15:21:21.318Z,3.05
2023-03-11T15:23:54.491Z,2.50
2023-03-11T15:26:27.477Z,3.67
2023-03-11T15:29:07.094Z,3.60
2023-03-11T15:31:39.813Z,2.90
2023-03-11T15:34:20.316Z,3.08
2023-03-11T15:36:51.148Z,2.50
2023-03-11T15:39:22.766Z,2.88
2023-03-11T15:42:14.916Z,2.60
2023-03-11T15:45:01.378Z,2.95
2023-03-11T15:47:31.980Z,2.55
2023-03-11T15:50:23.596Z,2.45
2023-03-11T15:52:56.354Z,2.33
2023-03-11T15:55:28.546Z,2.05
2023-03-11T15:58:05.002Z,2.25
2023-03-11T16:00:36.018Z,2.08
2023-03-11T16:03:06.762Z,1.98
2023-03-11T16:05:37.037Z,2.10
2023-03-11T16:08:07.520Z,1.80
2023-03-11T16:10:38.572Z,1.58
2023-03-11T16:13:14.431Z,1.88
2023-03-11T16:15:47.069Z,1.85
2023-03-11T16:18:17.772Z,2.15
2023-03-11T16:20:55.591Z,2.10
2023-03-11T16:23:48.602Z,2.00
2023-03-11T16:26:23.355Z,1.92
2023-03-11T16:28:53.651Z,1.63
2023-03-11T16:31:23.905Z,2.08
2023-03-11T16:33:54.115Z,2.00
2023-03-11T16:36:24.396Z,2.17
2023-03-11T16:38:54.614Z,1.90
2023-03-11T16:41:24.701Z,1.88
2023-03-11T16:43:55.754Z,1.58
2023-03-11T16:46:26.066Z,1.65
2023-03-11T16:48:56.414Z,1.83
2023-03-11T16:51:26.535Z,1.63
2023-03-11T16:53:56.838Z,1.55
2023-03-11T16:56:27.645Z,1.42
2023-03-11T16:58:57.854Z,1.33
2023-03-11T17:01:28.224Z,1.30
2023-03-11T17:03:58.413Z,1.00
2023-03-11T17:06:28.575Z,1.20
2023-03-11T17:08:58.856Z,1.13
2023-03-11T17:11:30.748Z,1.45
2023-03-11T17:14:15.469Z,1.10
2023-03-11T17:16:46.960Z,1.27
2023-03-11T17:19:17.268Z,0.95
2023-03-11T17:21:47.747Z,0.98
2023-03-11T17:24:18.858Z,1.02
2023-03-11T17:26:50.211Z,0.98
2023-03-11T17:29:20.444Z,0.85
2023-03-11T17:31:50.499Z,0.80
2023-03-11T17:34:20.691Z,1.00
2023-03-11T17:36:50.607Z,1.10
2023-03-11T17:39:21.955Z,1.00
2023-03-11T17:41:53.156Z,1.08
2023-03-11T17:44:23.381Z,0.82
2023-03-11T17:46:53.650Z,0.90
2023-03-11T17:49:24.828Z,0.98
2023-03-11T17:51:55.154Z,1.00
2023-03-11T17:54:25.209Z,1.15
2023-03-11T17:56:57.075Z,1.02
2023-03-11T17:59:27.301Z,0.70
2023-03-11T18:01:57.424Z,0.90
2023-03-11T18:04:27.557Z,1.00
2023-03-11T18:06:57.787Z,1.25
2023-03-11T18:09:28.203Z,0.90
2023-03-11T18:11:58.356Z,0.90
2023-03-11T18:14:28.511Z,0.75
2023-03-11T18:16:58.764Z,0.68
2023-03-11T18:19:29.015Z,0.63
2023-03-11T18:21:59.264Z,0.60
2023-03-11T18:24:30.659Z,0.43
2023-03-11T18:27:00.723Z,0.75
2023-03-11T18:32:00.141Z,0.80
2023-03-11T18:34:30.330Z,0.80
2023-03-11T18:37:00.492Z,1.17
2023-03-11T18:39:30.598Z,0.82
2023-03-11T18:42:00.645Z,0.82
2023-03-11T18:44:30.824Z,0.85
2023-03-11T18:47:00.681Z,0.70
2023-03-11T18:49:30.595Z,0.90
2023-03-11T18:52:00.448Z,0.90
2023-03-11T18:54:30.782Z,0.80
2023-03-11T18:57:00.981Z,0.80
2023-03-11T18:59:31.120Z,0.90
2023-03-11T19:02:01.097Z,0.80
2023-03-11T19:04:31.234Z,0.90
2023-03-11T19:07:01.473Z,1.10
2023-03-11T19:09:31.661Z,1.02
2023-03-11T19:12:01.645Z,1.13
2023-03-11T19:14:31.852Z,1.33
2023-03-11T19:17:01.938Z,1.50
2023-03-11T19:19:33.994Z,2.22
2023-03-11T19:22:04.118Z,2.20
2023-03-11T19:24:34.208Z,2.97
2023-03-11T19:27:04.784Z,3.47
2023-03-11T19:29:35.064Z,3.40
2023-03-11T19:32:05.281Z,3.53
2023-03-11T19:34:35.807Z,3.88
2023-03-11T19:37:07.541Z,4.07
2023-03-11T19:39:37.791Z,3.83
2023-03-11T19:42:07.794Z,3.78
2023-03-11T19:44:37.759Z,3.47
2023-03-11T19:47:07.834Z,3.30
2023-03-11T19:49:37.773Z,3.33
2023-03-11T19:52:11.000Z,2.45
2023-03-11T19:54:41.244Z,2.65
2023-03-11T19:57:11.574Z,2.67
2023-03-11T19:59:41.827Z,2.50
2023-03-11T20:02:15.870Z,2.78
2023-03-11T20:04:46.115Z,2.70
2023-03-11T20:07:16.459Z,2.80
2023-03-11T20:09:46.679Z,3.28
2023-03-11T20:12:17.248Z,3.10
2023-03-11T20:14:47.577Z,3.22
2023-03-11T20:17:17.996Z,3.55
2023-03-11T20:19:49.060Z,3.65
2023-03-11T20:22:19.304Z,3.80
2023-03-11T20:24:49.578Z,3.80
2023-03-11T20:27:20.107Z,4.20
2023-03-11T20:29:50.689Z,4.22
2023-03-11T20:32:20.684Z,4.28
2023-03-11T20:34:50.710Z,3.55
2023-03-11T20:37:20.810Z,4.10
2023-03-11T20:39:50.760Z,3.80
2023-03-11T20:42:20.981Z,3.33
2023-03-11T20:44:59.844Z,3.13
2023-03-11T20:47:30.159Z,3.13
2023-03-11T20:50:00.691Z,3.15
2023-03-11T20:52:36.837Z,3.28
2023-03-11T20:55:09.457Z,3.00
2023-03-11T20:57:40.438Z,3.60
2023-03-11T21:00:13.678Z,3.47
2023-03-11T21:02:45.012Z,4.28
2023-03-11T21:05:15.506Z,3.63
2023-03-11T21:07:45.644Z,3.28
2023-03-11T21:10:15.929Z,3.53
2023-03-11T21:12:46.211Z,2.97
2023-03-11T21:15:16.231Z,3.05
2023-03-11T21:17:46.497Z,2.83
2023-03-11T21:20:17.999Z,2.85
2023-03-11T21:22:48.265Z,2.30
2023-03-11T21:25:18.597Z,2.20
2023-03-11T21:27:49.192Z,2.40
2023-03-11T21:30:20.708Z,2.10
2023-03-11T21:32:54.935Z,2.45
2023-03-11T21:35:25.661Z,1.88
2023-03-11T21:37:57.451Z,1.92
2023-03-11T21:40:28.371Z,1.52
2023-03-11T21:42:59.066Z,1.58
2023-03-11T21:45:29.793Z,1.98
2023-03-11T21:48:00.116Z,1.55
2023-03-11T21:50:30.664Z,2.03
2023-03-11T21:53:01.052Z,1.65
2023-03-11T21:55:32.606Z,1.42
2023-03-11T21:58:04.669Z,1.75
2023-03-11T22:00:34.868Z,1.60
2023-03-11T22:03:05.548Z,1.38
2023-03-11T22:05:35.781Z,1.25
2023-03-11T22:10:35.375Z,1.77
2023-03-11T22:13:05.939Z,1.40
2023-03-11T22:15:56.190Z,0.98
2023-03-11T22:18:26.384Z,0.93
2023-03-11T22:21:01.816Z,1.13
2023-03-11T22:23:32.346Z,1.20
2023-03-11T22:26:03.225Z,1.13
2023-03-11T22:28:33.857Z,1.60
2023-03-11T22:31:15.286Z,1.20
2023-03-11T22:33:45.570Z,1.30
2023-03-11T22:36:16.006Z,0.93
2023-03-11T22:38:46.558Z,1.33
2023-03-11T22:41:20.387Z,1.23
2023-03-11T22:43:50.593Z,0.77
2023-03-11T22:46:20.918Z,1.10
2023-03-11T22:48:51.073Z,0.88
2023-03-11T22:51:21.196Z,1.13
2023-03-11T22:53:51.402Z,1.27
2023-03-11T22:56:21.614Z,1.17
2023-03-11T22:58:52.546Z,1.40
2023-03-11T23:01:22.689Z,1.45
2023-03-11T23:03:52.864Z,1.23
2023-03-11T23:06:23.888Z,1.27
2023-03-11T23:08:54.107Z,1.00
2023-03-11T23:11:24.571Z,0.88
2023-03-11T23:13:55.855Z,1.17
2023-03-11T23:16:27.692Z,1.48
2023-03-11T23:18:58.537Z,1.15
2023-03-11T23:21:33.515Z,1.30
2023-03-11T23:24:06.294Z,0.95
2023-03-11T23:26:38.326Z,1.10
2023-03-11T23:29:09.094Z,1.17
2023-03-11T23:31:39.255Z,1.52
2023-03-11T23:34:09.465Z,1.33
2023-03-11T23:36:39.743Z,0.80
2023-03-11T23:39:09.995Z,0.90
2023-03-11T23:41:40.094Z,1.10
2023-03-11T23:46:39.593Z,0.90
2023-03-11T23:49:10.544Z,0.95
2023-03-11T23:51:40.394Z,0.93
2023-03-11T23:56:40.195Z,0.80
2023-03-11T23:59:10.296Z,1.00
